sensor_id;sensor_type;location;lat;lon;timestamp;P1;durP1;ratioP1;P2;durP2;ratioP2
31224;SDS011;17847;31.524;74.366;2022-09-09T00:00:27;48.05;;;40.90;;
31224;SDS011;17847;31.524;74.366;2022-09-09T00:03:12;56.35;;;42.47;;
31224;SDS011;17847;31.524;74.366;2022-09-09T00:09:08;52.13;;;41.20;;
31224;SDS011;17847;31.524;74.366;2022-09-09T00:12:04;54.35;;;40.97;;
31224;SDS011;17847;31.524;74.366;2022-09-09T00:15:11;51.85;;;41.25;;
31224;SDS011;17847;31.524;74.366;2022-09-09T00:18:17;53.33;;;40.97;;
31224;SDS011;17847;31.524;74.366;2022-09-09T00:21:23;55.55;;;40.83;;
31224;SDS011;17847;31.524;74.366;2022-09-09T00:24:24;54.40;;;41.28;;
31224;SDS011;17847;31.524;74.366;2022-09-09T00:27:14;60.42;;;41.92;;
31224;SDS011;17847;31.524;74.366;2022-09-09T00:30:19;57.53;;;41.97;;
31224;SDS011;17847;31.524;74.366;2022-09-09T00:33:20;49.47;;;42.42;;
31224;SDS011;17847;31.524;74.366;2022-09-09T00:36:09;60.63;;;43.80;;
31224;SDS011;17847;31.524;74.366;2022-09-09T00:39:04;53.03;;;42.70;;
31224;SDS011;17847;31.524;74.366;2022-09-09T00:48:14;58.47;;;44.42;;
31224;SDS011;17847;31.524;74.366;2022-09-09T00:51:06;65.32;;;46.85;;
31224;SDS011;17847;31.524;74.366;2022-09-09T01:03:34;52.47;;;44.13;;
31224;SDS011;17847;31.524;74.366;2022-09-09T01:06:21;58.20;;;44.65;;
31224;SDS011;17847;31.524;74.366;2022-09-09T01:12:09;56.55;;;43.75;;
31224;SDS011;17847;31.524;74.366;2022-09-09T01:15:09;59.35;;;45.03;;
31224;SDS011;17847;31.524;74.366;2022-09-09T03:34:37;65.43;;;43.70;;
31224;SDS011;17847;31.524;74.366;2022-09-09T03:37:37;69.32;;;44.90;;
31224;SDS011;17847;31.524;74.366;2022-09-09T03:43:10;63.13;;;43.25;;
31224;SDS011;17847;31.524;74.366;2022-09-09T03:46:05;62.25;;;46.25;;
31224;SDS011;17847;31.524;74.366;2022-09-09T03:48:50;56.80;;;41.33;;
31224;SDS011;17847;31.524;74.366;2022-09-09T03:51:41;60.70;;;41.75;;
31224;SDS011;17847;31.524;74.366;2022-09-09T03:54:24;62.72;;;44.80;;
31224;SDS011;17847;31.524;74.366;2022-09-09T03:57:13;62.50;;;43.30;;
31224;SDS011;17847;31.524;74.366;2022-09-09T03:59:58;57.95;;;42.08;;
31224;SDS011;17847;31.524;74.366;2022-09-09T04:02:57;59.60;;;42.92;;
31224;SDS011;17847;31.524;74.366;2022-09-09T04:05:40;54.25;;;38.88;;
31224;SDS011;17847;31.524;74.366;2022-09-09T04:08:32;48.40;;;33.63;;
31224;SDS011;17847;31.524;74.366;2022-09-09T04:11:09;40.95;;;29.27;;
31224;SDS011;17847;31.524;74.366;2022-09-09T04:14:05;47.75;;;30.27;;
31224;SDS011;17847;31.524;74.366;2022-09-09T04:16:52;38.88;;;28.42;;
31224;SDS011;17847;31.524;74.366;2022-09-09T04:19:47;38.33;;;26.67;;
31224;SDS011;17847;31.524;74.366;2022-09-09T04:22:27;34.53;;;26.27;;
31224;SDS011;17847;31.524;74.366;2022-09-09T04:25:26;41.10;;;25.52;;
31224;SDS011;17847;31.524;74.366;2022-09-09T04:28:10;33.33;;;23.23;;
31224;SDS011;17847;31.524;74.366;2022-09-09T04:31:16;35.83;;;23.45;;
31224;SDS011;17847;31.524;74.366;2022-09-09T04:34:09;29.53;;;21.46;;
31224;SDS011;17847;31.524;74.366;2022-09-09T04:37:05;29.73;;;21.65;;
31224;SDS011;17847;31.524;74.366;2022-09-09T04:40:01;32.67;;;21.65;;
31224;SDS011;17847;31.524;74.366;2022-09-09T04:42:38;29.73;;;20.13;;
31224;SDS011;17847;31.524;74.366;2022-09-09T04:45:37;31.60;;;20.33;;
31224;SDS011;17847;31.524;74.366;2022-09-09T04:48:26;34.00;;;20.93;;
31224;SDS011;17847;31.524;74.366;2022-09-09T04:51:16;32.42;;;20.90;;
31224;SDS011;17847;31.524;74.366;2022-09-09T04:53:57;32.17;;;20.90;;
31224;SDS011;17847;31.524;74.366;2022-09-09T04:56:55;29.10;;;19.77;;
31224;SDS011;17847;31.524;74.366;2022-09-09T04:59:36;32.85;;;21.02;;
31224;SDS011;17847;31.524;74.366;2022-09-09T05:02:39;29.48;;;19.75;;
31224;SDS011;17847;31.524;74.366;2022-09-09T05:05:17;31.23;;;20.27;;
31224;SDS011;17847;31.524;74.366;2022-09-09T05:08:14;25.15;;;18.75;;
31224;SDS011;17847;31.524;74.366;2022-09-09T05:10:57;38.58;;;19.65;;
31224;SDS011;17847;31.524;74.366;2022-09-09T05:13:51;31.40;;;19.58;;
31224;SDS011;17847;31.524;74.366;2022-09-09T05:16:35;26.33;;;19.20;;
31224;SDS011;17847;31.524;74.366;2022-09-09T05:19:27;27.27;;;19.85;;
31224;SDS011;17847;31.524;74.366;2022-09-09T05:22:18;35.55;;;20.20;;
31224;SDS011;17847;31.524;74.366;2022-09-09T05:25:13;25.40;;;18.70;;
31224;SDS011;17847;31.524;74.366;2022-09-09T05:27:49;25.30;;;19.17;;
31224;SDS011;17847;31.524;74.366;2022-09-09T05:30:54;28.00;;;19.35;;
31224;SDS011;17847;31.524;74.366;2022-09-09T05:33:44;25.25;;;18.90;;
31224;SDS011;17847;31.524;74.366;2022-09-09T05:36:34;22.73;;;17.95;;
31224;SDS011;17847;31.524;74.366;2022-09-09T05:39:30;26.58;;;17.60;;
31224;SDS011;17847;31.524;74.366;2022-09-09T05:42:13;25.77;;;18.10;;
31224;SDS011;17847;31.524;74.366;2022-09-09T05:45:05;26.90;;;17.17;;
31224;SDS011;17847;31.524;74.366;2022-09-09T05:47:42;23.52;;;17.55;;
31224;SDS011;17847;31.524;74.366;2022-09-09T05:50:38;25.40;;;17.60;;
31224;SDS011;17847;31.524;74.366;2022-09-09T05:53:13;25.60;;;18.02;;
31224;SDS011;17847;31.524;74.366;2022-09-09T05:56:11;29.90;;;19.45;;
31224;SDS011;17847;31.524;74.366;2022-09-09T05:59:00;24.27;;;17.77;;
31224;SDS011;17847;31.524;74.366;2022-09-09T06:01:49;22.60;;;17.60;;
31224;SDS011;17847;31.524;74.366;2022-09-09T06:07:25;22.38;;;16.92;;
31224;SDS011;17847;31.524;74.366;2022-09-09T06:10:09;28.98;;;17.33;;
31224;SDS011;17847;31.524;74.366;2022-09-09T06:13:04;24.85;;;18.05;;
31224;SDS011;17847;31.524;74.366;2022-09-09T06:15:53;28.92;;;17.17;;
31224;SDS011;17847;31.524;74.366;2022-09-09T06:18:45;25.52;;;16.58;;
31224;SDS011;17847;31.524;74.366;2022-09-09T06:21:32;26.15;;;16.33;;
31224;SDS011;17847;31.524;74.366;2022-09-09T06:24:41;22.55;;;15.77;;
31224;SDS011;17847;31.524;74.366;2022-09-09T06:27:24;26.95;;;16.67;;
31224;SDS011;17847;31.524;74.366;2022-09-09T06:30:20;26.50;;;16.75;;
31224;SDS011;17847;31.524;74.366;2022-09-09T06:33:08;24.88;;;16.98;;
31224;SDS011;17847;31.524;74.366;2022-09-09T06:36:00;21.60;;;16.42;;
31224;SDS011;17847;31.524;74.366;2022-09-09T06:38:58;24.60;;;17.35;;
31224;SDS011;17847;31.524;74.366;2022-09-09T06:41:47;20.90;;;16.63;;
31224;SDS011;17847;31.524;74.366;2022-09-09T06:45:03;28.02;;;16.20;;
31224;SDS011;17847;31.524;74.366;2022-09-09T06:47:54;22.40;;;16.65;;
31224;SDS011;17847;31.524;74.366;2022-09-09T06:50:43;21.70;;;16.83;;
31224;SDS011;17847;31.524;74.366;2022-09-09T06:53:26;19.13;;;16.23;;
31224;SDS011;17847;31.524;74.366;2022-09-09T06:56:18;24.15;;;17.58;;
31224;SDS011;17847;31.524;74.366;2022-09-09T06:59:09;20.13;;;15.25;;
31224;SDS011;17847;31.524;74.366;2022-09-09T07:02:00;22.30;;;16.38;;
31224;SDS011;17847;31.524;74.366;2022-09-09T07:04:57;17.85;;;15.20;;
31224;SDS011;17847;31.524;74.366;2022-09-09T07:07:47;19.70;;;14.98;;
31224;SDS011;17847;31.524;74.366;2022-09-09T07:10:33;26.25;;;15.35;;
31224;SDS011;17847;31.524;74.366;2022-09-09T07:13:28;17.33;;;14.23;;
31224;SDS011;17847;31.524;74.366;2022-09-09T07:16:15;22.80;;;16.02;;
31224;SDS011;17847;31.524;74.366;2022-09-09T07:19:11;21.40;;;15.45;;
31224;SDS011;17847;31.524;74.366;2022-09-09T07:21:55;25.13;;;15.80;;
31224;SDS011;17847;31.524;74.366;2022-09-09T07:24:46;26.02;;;15.02;;
31224;SDS011;17847;31.524;74.366;2022-09-09T07:27:28;24.23;;;14.73;;
31224;SDS011;17847;31.524;74.366;2022-09-09T07:30:24;19.50;;;14.38;;
31224;SDS011;17847;31.524;74.366;2022-09-09T07:33:07;19.20;;;14.93;;
31224;SDS011;17847;31.524;74.366;2022-09-09T07:38:53;18.15;;;14.43;;
31224;SDS011;17847;31.524;74.366;2022-09-09T07:41:57;17.15;;;14.98;;
31224;SDS011;17847;31.524;74.366;2022-09-09T07:44:35;15.93;;;13.50;;
31224;SDS011;17847;31.524;74.366;2022-09-09T07:47:32;18.15;;;14.88;;
31224;SDS011;17847;31.524;74.366;2022-09-09T07:50:13;22.92;;;13.55;;
31224;SDS011;17847;31.524;74.366;2022-09-09T07:53:15;20.75;;;13.50;;
31224;SDS011;17847;31.524;74.366;2022-09-09T07:56:02;23.50;;;13.25;;
31224;SDS011;17847;31.524;74.366;2022-09-09T07:58:58;19.10;;;13.00;;
31224;SDS011;17847;31.524;74.366;2022-09-09T08:01:46;17.80;;;14.10;;
31224;SDS011;17847;31.524;74.366;2022-09-09T08:04:52;22.77;;;14.10;;
31224;SDS011;17847;31.524;74.366;2022-09-09T08:07:39;23.75;;;14.50;;
31224;SDS011;17847;31.524;74.366;2022-09-09T08:10:28;19.13;;;12.68;;
31224;SDS011;17847;31.524;74.366;2022-09-09T08:13:11;26.10;;;13.82;;
31224;SDS011;17847;31.524;74.366;2022-09-09T08:16:04;19.77;;;13.57;;
31224;SDS011;17847;31.524;74.366;2022-09-09T08:18:51;20.08;;;13.15;;
31224;SDS011;17847;31.524;74.366;2022-09-09T08:21:45;24.90;;;14.43;;
31224;SDS011;17847;31.524;74.366;2022-09-09T08:24:35;17.83;;;13.07;;
31224;SDS011;17847;31.524;74.366;2022-09-09T08:27:35;21.92;;;13.55;;
31224;SDS011;17847;31.524;74.366;2022-09-09T08:30:11;16.10;;;12.77;;
31224;SDS011;17847;31.524;74.366;2022-09-09T08:33:14;16.10;;;12.75;;
31224;SDS011;17847;31.524;74.366;2022-09-09T08:36:08;19.73;;;14.13;;
31224;SDS011;17847;31.524;74.366;2022-09-09T08:39:06;21.90;;;14.77;;
31224;SDS011;17847;31.524;74.366;2022-09-09T08:41:54;17.65;;;13.45;;
31224;SDS011;17847;31.524;74.366;2022-09-09T08:50:59;20.55;;;13.77;;
31224;SDS011;17847;31.524;74.366;2022-09-09T08:53:46;20.52;;;13.50;;
31224;SDS011;17847;31.524;74.366;2022-09-09T08:56:39;19.17;;;12.80;;
31224;SDS011;17847;31.524;74.366;2022-09-09T08:59:22;18.13;;;12.93;;
31224;SDS011;17847;31.524;74.366;2022-09-09T09:08:56;24.27;;;13.43;;
31224;SDS011;17847;31.524;74.366;2022-09-09T09:11:36;17.52;;;12.68;;
31224;SDS011;17847;31.524;74.366;2022-09-09T09:14:43;17.00;;;13.18;;
31224;SDS011;17847;31.524;74.366;2022-09-09T09:17:24;19.35;;;12.50;;
31224;SDS011;17847;31.524;74.366;2022-09-09T09:20:28;18.45;;;12.25;;
31224;SDS011;17847;31.524;74.366;2022-09-09T09:23:24;20.23;;;13.05;;
31224;SDS011;17847;31.524;74.366;2022-09-09T09:26:33;19.43;;;13.63;;
31224;SDS011;17847;31.524;74.366;2022-09-09T09:29:15;19.80;;;12.68;;
31224;SDS011;17847;31.524;74.366;2022-09-09T09:32:21;16.65;;;13.00;;
31224;SDS011;17847;31.524;74.366;2022-09-09T09:35:09;20.02;;;13.75;;
31224;SDS011;17847;31.524;74.366;2022-09-09T09:38:18;20.95;;;13.40;;
31224;SDS011;17847;31.524;74.366;2022-09-09T09:41:40;19.88;;;12.98;;
31224;SDS011;17847;31.524;74.366;2022-09-09T09:44:26;25.25;;;14.18;;
31224;SDS011;17847;31.524;74.366;2022-09-09T09:47:25;22.92;;;13.55;;
31224;SDS011;17847;31.524;74.366;2022-09-09T09:50:18;17.58;;;12.43;;
31224;SDS011;17847;31.524;74.366;2022-09-09T09:53:30;19.05;;;13.02;;
31224;SDS011;17847;31.524;74.366;2022-09-09T10:02:24;19.92;;;13.55;;
31224;SDS011;17847;31.524;74.366;2022-09-09T10:05:32;22.98;;;14.77;;
31224;SDS011;17847;31.524;74.366;2022-09-09T10:08:33;19.45;;;14.20;;
31224;SDS011;17847;31.524;74.366;2022-09-09T10:15:13;22.40;;;14.15;;
31224;SDS011;17847;31.524;74.366;2022-09-09T10:24:00;22.55;;;17.50;;
31224;SDS011;17847;31.524;74.366;2022-09-09T10:39:06;28.42;;;21.17;;
31224;SDS011;17847;31.524;74.366;2022-09-09T10:42:36;33.17;;;24.63;;
31224;SDS011;17847;31.524;74.366;2022-09-09T10:45:27;36.28;;;25.27;;
31224;SDS011;17847;31.524;74.366;2022-09-09T10:48:36;35.75;;;24.23;;
31224;SDS011;17847;31.524;74.366;2022-09-09T10:55:02;25.15;;;19.92;;
31224;SDS011;17847;31.524;74.366;2022-09-09T10:58:10;34.88;;;22.55;;
31224;SDS011;17847;31.524;74.366;2022-09-09T11:01:03;31.50;;;24.67;;
31224;SDS011;17847;31.524;74.366;2022-09-09T11:07:20;29.08;;;21.98;;
31224;SDS011;17847;31.524;74.366;2022-09-09T11:13:51;26.80;;;19.27;;
31224;SDS011;17847;31.524;74.366;2022-09-09T11:16:48;21.92;;;17.88;;
31224;SDS011;17847;31.524;74.366;2022-09-09T11:19:40;21.52;;;16.50;;
31224;SDS011;17847;31.524;74.366;2022-09-09T11:23:20;24.15;;;16.60;;
31224;SDS011;17847;31.524;74.366;2022-09-09T11:25:58;20.25;;;15.05;;
31224;SDS011;17847;31.524;74.366;2022-09-09T11:29:15;20.67;;;15.93;;
31224;SDS011;17847;31.524;74.366;2022-09-09T11:42:32;17.85;;;15.35;;
31224;SDS011;17847;31.524;74.366;2022-09-09T11:45:26;16.65;;;14.85;;
31224;SDS011;17847;31.524;74.366;2022-09-09T11:51:28;19.90;;;15.85;;
31224;SDS011;17847;31.524;74.366;2022-09-09T11:54:26;24.92;;;16.98;;
31224;SDS011;17847;31.524;74.366;2022-09-09T11:57:21;24.88;;;17.10;;
31224;SDS011;17847;31.524;74.366;2022-09-09T12:00:32;20.73;;;15.90;;
31224;SDS011;17847;31.524;74.366;2022-09-09T12:12:41;81.50;;;20.40;;
31224;SDS011;17847;31.524;74.366;2022-09-09T12:15:26;24.20;;;17.48;;
31224;SDS011;17847;31.524;74.366;2022-09-09T12:18:37;18.80;;;15.65;;
31224;SDS011;17847;31.524;74.366;2022-09-09T12:27:44;27.10;;;20.05;;
31224;SDS011;17847;31.524;74.366;2022-09-09T12:40:39;25.45;;;19.52;;
31224;SDS011;17847;31.524;74.366;2022-09-09T12:43:36;25.77;;;19.90;;
31224;SDS011;17847;31.524;74.366;2022-09-09T12:49:39;23.58;;;20.35;;
31224;SDS011;17847;31.524;74.366;2022-09-09T12:55:27;33.38;;;22.63;;
31224;SDS011;17847;31.524;74.366;2022-09-09T12:58:06;31.15;;;22.58;;
31224;SDS011;17847;31.524;74.366;2022-09-09T13:01:17;37.63;;;24.52;;
31224;SDS011;17847;31.524;74.366;2022-09-09T13:04:19;38.13;;;25.80;;
31224;SDS011;17847;31.524;74.366;2022-09-09T13:07:15;36.83;;;24.73;;
31224;SDS011;17847;31.524;74.366;2022-09-09T13:09:51;37.08;;;25.20;;
31224;SDS011;17847;31.524;74.366;2022-09-09T13:12:49;35.55;;;24.13;;
31224;SDS011;17847;31.524;74.366;2022-09-09T13:15:26;42.63;;;25.58;;
31224;SDS011;17847;31.524;74.366;2022-09-09T13:18:31;38.38;;;24.17;;
31224;SDS011;17847;31.524;74.366;2022-09-09T13:21:10;35.45;;;24.50;;
31224;SDS011;17847;31.524;74.366;2022-09-09T13:27:28;38.28;;;23.63;;
31224;SDS011;17847;31.524;74.366;2022-09-09T13:30:36;42.97;;;25.63;;
31224;SDS011;17847;31.524;74.366;2022-09-09T13:33:37;33.30;;;23.98;;
31224;SDS011;17847;31.524;74.366;2022-09-09T13:36:30;43.40;;;25.70;;
31224;SDS011;17847;31.524;74.366;2022-09-09T13:39:24;29.80;;;23.33;;
31224;SDS011;17847;31.524;74.366;2022-09-09T13:42:29;36.92;;;23.13;;
31224;SDS011;17847;31.524;74.366;2022-09-09T13:45:20;37.63;;;25.25;;
31224;SDS011;17847;31.524;74.366;2022-09-09T13:48:21;32.47;;;23.67;;
31224;SDS011;17847;31.524;74.366;2022-09-09T13:51:22;34.22;;;24.33;;
31224;SDS011;17847;31.524;74.366;2022-09-09T13:54:34;41.22;;;26.45;;
31224;SDS011;17847;31.524;74.366;2022-09-09T13:57:18;35.83;;;26.25;;
31224;SDS011;17847;31.524;74.366;2022-09-09T14:00:11;38.03;;;25.35;;
31224;SDS011;17847;31.524;74.366;2022-09-09T14:02:51;46.55;;;26.05;;
31224;SDS011;17847;31.524;74.366;2022-09-09T14:05:56;38.88;;;26.20;;
31224;SDS011;17847;31.524;74.366;2022-09-09T14:08:39;36.47;;;25.63;;
31224;SDS011;17847;31.524;74.366;2022-09-09T14:11:38;39.88;;;27.05;;
31224;SDS011;17847;31.524;74.366;2022-09-09T14:14:16;41.30;;;26.80;;
31224;SDS011;17847;31.524;74.366;2022-09-09T14:17:18;42.20;;;26.77;;
31224;SDS011;17847;31.524;74.366;2022-09-09T14:20:08;49.90;;;28.45;;
31224;SDS011;17847;31.524;74.366;2022-09-09T14:23:02;35.00;;;25.58;;
31224;SDS011;17847;31.524;74.366;2022-09-09T14:25:48;45.70;;;27.08;;
31224;SDS011;17847;31.524;74.366;2022-09-09T14:28:47;42.73;;;26.57;;
31224;SDS011;17847;31.524;74.366;2022-09-09T14:31:36;41.70;;;25.75;;
31224;SDS011;17847;31.524;74.366;2022-09-09T14:34:34;42.63;;;27.42;;
31224;SDS011;17847;31.524;74.366;2022-09-09T14:37:18;39.78;;;26.00;;
31224;SDS011;17847;31.524;74.366;2022-09-09T14:40:09;45.22;;;26.95;;
31224;SDS011;17847;31.524;74.366;2022-09-09T14:43:09;40.63;;;24.95;;
31224;SDS011;17847;31.524;74.366;2022-09-09T14:45:55;38.83;;;25.80;;
31224;SDS011;17847;31.524;74.366;2022-09-09T14:48:44;40.63;;;25.27;;
31224;SDS011;17847;31.524;74.366;2022-09-09T14:51:31;29.48;;;24.13;;
31224;SDS011;17847;31.524;74.366;2022-09-09T14:54:21;35.63;;;24.00;;
31224;SDS011;17847;31.524;74.366;2022-09-09T14:57:04;34.40;;;25.33;;
31224;SDS011;17847;31.524;74.366;2022-09-09T14:59:53;39.67;;;25.70;;
31224;SDS011;17847;31.524;74.366;2022-09-09T15:02:37;41.58;;;25.33;;
31224;SDS011;17847;31.524;74.366;2022-09-09T15:05:39;31.92;;;23.90;;
31224;SDS011;17847;31.524;74.366;2022-09-09T15:08:21;43.70;;;27.08;;
31224;SDS011;17847;31.524;74.366;2022-09-09T15:11:10;31.35;;;24.90;;
31224;SDS011;17847;31.524;74.366;2022-09-09T15:13:55;43.22;;;27.50;;
31224;SDS011;17847;31.524;74.366;2022-09-09T15:16:45;40.63;;;26.00;;
31224;SDS011;17847;31.524;74.366;2022-09-09T15:19:27;46.58;;;28.33;;
31224;SDS011;17847;31.524;74.366;2022-09-09T15:22:18;42.60;;;26.88;;
31224;SDS011;17847;31.524;74.366;2022-09-09T15:25:01;40.83;;;27.10;;
31224;SDS011;17847;31.524;74.366;2022-09-09T15:27:54;38.45;;;26.95;;
31224;SDS011;17847;31.524;74.366;2022-09-09T15:30:39;39.60;;;27.50;;
31224;SDS011;17847;31.524;74.366;2022-09-09T15:33:29;39.58;;;28.85;;
31224;SDS011;17847;31.524;74.366;2022-09-09T15:36:13;41.00;;;28.15;;
31224;SDS011;17847;31.524;74.366;2022-09-09T15:39:05;43.83;;;29.35;;
31224;SDS011;17847;31.524;74.366;2022-09-09T15:42:07;49.53;;;28.45;;
31224;SDS011;17847;31.524;74.366;2022-09-09T15:45:03;44.15;;;29.02;;
31224;SDS011;17847;31.524;74.366;2022-09-09T15:47:47;39.00;;;29.90;;
31224;SDS011;17847;31.524;74.366;2022-09-09T15:50:37;44.17;;;29.38;;
31224;SDS011;17847;31.524;74.366;2022-09-09T15:53:20;45.63;;;28.58;;
31224;SDS011;17847;31.524;74.366;2022-09-09T15:56:15;44.28;;;28.67;;
31224;SDS011;17847;31.524;74.366;2022-09-09T15:58:59;38.60;;;28.60;;
31224;SDS011;17847;31.524;74.366;2022-09-09T16:01:58;42.72;;;30.08;;
31224;SDS011;17847;31.524;74.366;2022-09-09T16:04:35;40.85;;;27.58;;
31224;SDS011;17847;31.524;74.366;2022-09-09T16:07:31;40.42;;;28.23;;
31224;SDS011;17847;31.524;74.366;2022-09-09T16:10:15;38.15;;;29.73;;
31224;SDS011;17847;31.524;74.366;2022-09-09T16:13:04;42.55;;;28.30;;
31224;SDS011;17847;31.524;74.366;2022-09-09T16:15:55;43.63;;;30.55;;
31224;SDS011;17847;31.524;74.366;2022-09-09T16:18:46;39.80;;;29.65;;
31224;SDS011;17847;31.524;74.366;2022-09-09T16:21:30;43.85;;;31.35;;
31224;SDS011;17847;31.524;74.366;2022-09-09T16:24:27;43.65;;;30.33;;
31224;SDS011;17847;31.524;74.366;2022-09-09T16:27:10;39.25;;;30.63;;
31224;SDS011;17847;31.524;74.366;2022-09-09T16:30:00;43.38;;;30.45;;
31224;SDS011;17847;31.524;74.366;2022-09-09T16:32:43;50.40;;;32.85;;
31224;SDS011;17847;31.524;74.366;2022-09-09T16:35:36;45.80;;;32.33;;
31224;SDS011;17847;31.524;74.366;2022-09-09T16:38:22;44.42;;;31.58;;
31224;SDS011;17847;31.524;74.366;2022-09-09T16:41:12;45.10;;;33.42;;
31224;SDS011;17847;31.524;74.366;2022-09-09T16:44:11;43.80;;;32.90;;
31224;SDS011;17847;31.524;74.366;2022-09-09T16:47:03;46.08;;;32.13;;
31224;SDS011;17847;31.524;74.366;2022-09-09T16:50:00;42.83;;;31.02;;
31224;SDS011;17847;31.524;74.366;2022-09-09T16:52:43;41.10;;;31.08;;
31224;SDS011;17847;31.524;74.366;2022-09-09T16:55:37;43.15;;;32.53;;
31224;SDS011;17847;31.524;74.366;2022-09-09T16:58:26;42.13;;;30.98;;
31224;SDS011;17847;31.524;74.366;2022-09-09T17:01:16;48.30;;;33.67;;
31224;SDS011;17847;31.524;74.366;2022-09-09T17:03:55;41.95;;;32.67;;
31224;SDS011;17847;31.524;74.366;2022-09-09T17:06:59;42.42;;;31.70;;
31224;SDS011;17847;31.524;74.366;2022-09-09T17:09:38;46.40;;;31.67;;
31224;SDS011;17847;31.524;74.366;2022-09-09T17:12:36;39.22;;;30.40;;
31224;SDS011;17847;31.524;74.366;2022-09-09T17:15:21;48.55;;;30.88;;
31224;SDS011;17847;31.524;74.366;2022-09-09T17:18:14;41.03;;;30.90;;
31224;SDS011;17847;31.524;74.366;2022-09-09T17:21:09;41.40;;;30.30;;
31224;SDS011;17847;31.524;74.366;2022-09-09T17:24:11;46.30;;;29.75;;
31224;SDS011;17847;31.524;74.366;2022-09-09T17:26:54;43.22;;;29.75;;
31224;SDS011;17847;31.524;74.366;2022-09-09T17:29:43;33.83;;;28.17;;
31224;SDS011;17847;31.524;74.366;2022-09-09T17:32:50;38.20;;;29.63;;
31224;SDS011;17847;31.524;74.366;2022-09-09T17:36:01;39.08;;;28.67;;
31224;SDS011;17847;31.524;74.366;2022-09-09T17:39:09;39.10;;;27.95;;
31224;SDS011;17847;31.524;74.366;2022-09-09T17:42:18;41.55;;;27.42;;
31224;SDS011;17847;31.524;74.366;2022-09-09T17:45:18;35.42;;;29.63;;
31224;SDS011;17847;31.524;74.366;2022-09-09T17:48:27;39.03;;;27.95;;
31224;SDS011;17847;31.524;74.366;2022-09-09T17:51:35;38.50;;;27.58;;
31224;SDS011;17847;31.524;74.366;2022-09-09T17:54:44;37.92;;;28.42;;
31224;SDS011;17847;31.524;74.366;2022-09-09T17:57:46;39.85;;;27.88;;
31224;SDS011;17847;31.524;74.366;2022-09-09T18:01:00;41.05;;;27.92;;
31224;SDS011;17847;31.524;74.366;2022-09-09T18:04:08;34.53;;;26.52;;
31224;SDS011;17847;31.524;74.366;2022-09-09T18:07:16;39.17;;;28.15;;
31224;SDS011;17847;31.524;74.366;2022-09-09T18:10:21;35.47;;;27.65;;
31224;SDS011;17847;31.524;74.366;2022-09-09T18:13:33;34.22;;;27.95;;
31224;SDS011;17847;31.524;74.366;2022-09-09T18:16:39;40.38;;;27.20;;
31224;SDS011;17847;31.524;74.366;2022-09-09T18:19:49;40.88;;;27.40;;
31224;SDS011;17847;31.524;74.366;2022-09-09T18:22:58;44.58;;;28.65;;
31224;SDS011;17847;31.524;74.366;2022-09-09T18:26:14;40.72;;;27.50;;
31224;SDS011;17847;31.524;74.366;2022-09-09T18:29:12;35.53;;;26.40;;
31224;SDS011;17847;31.524;74.366;2022-09-09T18:32:31;40.05;;;26.48;;
31224;SDS011;17847;31.524;74.366;2022-09-09T18:35:27;35.08;;;27.52;;
31224;SDS011;17847;31.524;74.366;2022-09-09T18:38:42;40.40;;;28.38;;
31224;SDS011;17847;31.524;74.366;2022-09-09T18:41:53;36.95;;;28.40;;
31224;SDS011;17847;31.524;74.366;2022-09-09T18:45:11;39.55;;;28.75;;
31224;SDS011;17847;31.524;74.366;2022-09-09T18:48:14;33.35;;;25.02;;
31224;SDS011;17847;31.524;74.366;2022-09-09T18:51:30;38.20;;;28.88;;
31224;SDS011;17847;31.524;74.366;2022-09-09T18:54:29;41.30;;;29.35;;
31224;SDS011;17847;31.524;74.366;2022-09-09T18:57:46;42.58;;;31.65;;
31224;SDS011;17847;31.524;74.366;2022-09-09T19:00:48;42.83;;;30.27;;
31224;SDS011;17847;31.524;74.366;2022-09-09T19:04:04;38.75;;;29.65;;
31224;SDS011;17847;31.524;74.366;2022-09-09T19:07:08;43.97;;;28.77;;
31224;SDS011;17847;31.524;74.366;2022-09-09T19:10:16;37.95;;;28.50;;
31224;SDS011;17847;31.524;74.366;2022-09-09T19:13:19;42.90;;;28.40;;
31224;SDS011;17847;31.524;74.366;2022-09-09T19:16:36;43.75;;;29.50;;
31224;SDS011;17847;31.524;74.366;2022-09-09T19:19:34;35.40;;;27.33;;
31224;SDS011;17847;31.524;74.366;2022-09-09T19:22:50;42.70;;;30.08;;
31224;SDS011;17847;31.524;74.366;2022-09-09T19:25:47;35.35;;;29.58;;
31224;SDS011;17847;31.524;74.366;2022-09-09T19:29:02;43.53;;;32.08;;
31224;SDS011;17847;31.524;74.366;2022-09-09T19:32:00;38.95;;;30.20;;
31224;SDS011;17847;31.524;74.366;2022-09-09T19:35:38;46.10;;;32.25;;
31224;SDS011;17847;31.524;74.366;2022-09-09T19:38:40;43.65;;;33.72;;
31224;SDS011;17847;31.524;74.366;2022-09-09T19:41:48;50.17;;;32.25;;
31224;SDS011;17847;31.524;74.366;2022-09-09T19:45:04;38.15;;;29.40;;
31224;SDS011;17847;31.524;74.366;2022-09-09T19:48:06;46.75;;;32.22;;
31224;SDS011;17847;31.524;74.366;2022-09-09T19:51:20;54.70;;;35.55;;
31224;SDS011;17847;31.524;74.366;2022-09-09T19:54:16;49.45;;;35.30;;
31224;SDS011;17847;31.524;74.366;2022-09-09T19:57:32;51.70;;;35.35;;
31224;SDS011;17847;31.524;74.366;2022-09-09T20:00:27;52.08;;;37.13;;
31224;SDS011;17847;31.524;74.366;2022-09-09T20:03:43;49.17;;;36.58;;
31224;SDS011;17847;31.524;74.366;2022-09-09T20:06:42;59.90;;;38.22;;
31224;SDS011;17847;31.524;74.366;2022-09-09T20:09:58;54.65;;;38.47;;
31224;SDS011;17847;31.524;74.366;2022-09-09T20:13:02;47.15;;;36.55;;
31224;SDS011;17847;31.524;74.366;2022-09-09T20:16:12;50.58;;;36.03;;
31224;SDS011;17847;31.524;74.366;2022-09-09T20:19:17;55.22;;;36.08;;
31224;SDS011;17847;31.524;74.366;2022-09-09T20:22:25;51.53;;;36.67;;
31224;SDS011;17847;31.524;74.366;2022-09-09T20:25:28;53.95;;;35.30;;
31224;SDS011;17847;31.524;74.366;2022-09-09T20:28:46;52.72;;;36.45;;
31224;SDS011;17847;31.524;74.366;2022-09-09T20:31:52;51.47;;;35.75;;
31224;SDS011;17847;31.524;74.366;2022-09-09T20:35:00;51.50;;;35.88;;
31224;SDS011;17847;31.524;74.366;2022-09-09T20:38:03;50.40;;;39.25;;
31224;SDS011;17847;31.524;74.366;2022-09-09T20:41:12;51.88;;;39.90;;
31224;SDS011;17847;31.524;74.366;2022-09-09T20:44:24;56.13;;;40.60;;
31224;SDS011;17847;31.524;74.366;2022-09-09T20:47:39;62.72;;;41.45;;
31224;SDS011;17847;31.524;74.366;2022-09-09T20:50:54;53.75;;;41.90;;
31224;SDS011;17847;31.524;74.366;2022-09-09T20:53:59;65.63;;;44.40;;
31224;SDS011;17847;31.524;74.366;2022-09-09T20:57:09;58.60;;;40.80;;
31224;SDS011;17847;31.524;74.366;2022-09-09T21:00:12;59.22;;;42.45;;
31224;SDS011;17847;31.524;74.366;2022-09-09T21:03:21;64.60;;;42.08;;
31224;SDS011;17847;31.524;74.366;2022-09-09T21:06:25;59.63;;;42.30;;
31224;SDS011;17847;31.524;74.366;2022-09-09T21:09:42;57.85;;;41.90;;
31224;SDS011;17847;31.524;74.366;2022-09-09T21:12:45;58.70;;;42.10;;
31224;SDS011;17847;31.524;74.366;2022-09-09T21:15:57;60.65;;;41.92;;
31224;SDS011;17847;31.524;74.366;2022-09-09T21:19:00;56.83;;;42.58;;